Time;durP1;ratioP1;P1;durP2;ratioP2;P2;SDS_P1;SDS_P2;PMS_P1;PMS_P2;Temp;Humidity;BMP_temperature;BMP_pressure;BME280_temperature;BME280_humidity;BME280_pressure;Samples;Min_cycle;Max_cycle;Signal;HPM_P1;HPM_P2
2023/05/28 00:00:27;;;;;;;9.60;5.07;;;;;;;13.07;59.47;98537.16;4948916;28;20041;-74
2023/05/28 00:02:53;;;;;;;8.40;4.68;;;;;;;12.34;61.52;98532.91;4968037;28;20381;-74
2023/05/28 00:05:18;;;;;;;9.57;5.03;;;;;;;12.80;60.96;98530.84;4980598;28;20077;-74
2023/05/28 00:07:44;;;;;;;9.23;5.40;;;;;;;12.96;58.98;98527.25;4960836;28;20481;-74
2023/05/28 00:10:10;;;;;;;9.93;5.20;;;;;;;12.71;61.54;98527.75;4951952;28;20137;-74
2023/05/28 00:12:35;;;;;;;9.05;4.88;;;;;;;12.59;60.72;98515.41;4964874;28;20034;-74
2023/05/28 00:15:01;;;;;;;7.47;4.80;;;;;;;12.66;60.70;98524.97;4986161;28;20062;-74
2023/05/28 00:17:27;;;;;;;11.57;4.72;;;;;;;12.86;58.73;98519.03;4997624;28;20038;-73
2023/05/28 00:19:53;;;;;;;9.40;4.70;;;;;;;13.15;58.61;98515.09;4984640;28;20030;-74
2023/05/28 00:22:18;;;;;;;9.45;5.05;;;;;;;13.01;59.11;98513.81;4949921;28;20022;-74
2023/05/28 00:24:44;;;;;;;11.43;5.18;;;;;;;12.53;60.35;98517.25;4969762;28;20122;-74
2023/05/28 00:27:09;;;;;;;9.07;5.15;;;;;;;12.94;58.87;98515.88;4971965;28;20033;-75
2023/05/28 00:29:35;;;;;;;10.85;5.22;;;;;;;12.80;60.02;98517.31;4952714;28;20042;-76
2023/05/28 00:32:01;;;;;;;8.38;4.82;;;;;;;12.71;59.13;98505.31;4963006;28;20039;-75
2023/05/28 00:34:26;;;;;;;9.07;5.32;;;;;;;13.08;58.94;98506.34;4971597;28;20562;-75
2023/05/28 00:36:52;;;;;;;7.68;5.20;;;;;;;12.99;59.64;98513.25;4950240;28;20023;-75
2023/05/28 00:39:18;;;;;;;9.13;4.63;;;;;;;12.41;60.94;98521.91;4934681;29;20094;-75
2023/05/28 00:41:44;;;;;;;9.35;5.30;;;;;;;12.37;61.74;98527.00;4973071;28;20070;-75
2023/05/28 00:44:10;;;;;;;10.05;5.38;;;;;;;12.68;61.01;98516.59;4978468;28;20034;-73
2023/05/28 00:46:36;;;;;;;7.40;4.63;;;;;;;12.48;60.93;98507.16;4933926;28;20388;-73
2023/05/28 00:49:02;;;;;;;10.05;5.43;;;;;;;12.61;60.30;98515.97;4937171;28;20556;-73
2023/05/28 00:51:28;;;;;;;9.57;5.47;;;;;;;12.76;60.26;98525.13;4956450;28;20026;-75
2023/05/28 00:53:54;;;;;;;9.73;4.88;;;;;;;12.70;58.75;98498.25;4969897;28;20046;-74
2023/05/28 00:56:19;;;;;;;12.57;5.40;;;;;;;13.13;58.20;98509.13;4968020;28;20018;-75
2023/05/28 00:58:48;;;;;;;9.13;5.05;;;;;;;13.14;57.99;98510.72;4952869;29;20067;-75
2023/05/28 01:01:13;;;;;;;9.43;5.03;;;;;;;12.66;59.35;98510.63;4948128;28;20185;-75
2023/05/28 01:03:39;;;;;;;10.68;5.35;;;;;;;12.37;61.05;98512.66;4977303;28;20048;-75
2023/05/28 01:06:11;;;;;;;11.25;5.00;;;;;;;12.17;62.23;98510.50;4972585;28;20027;-74
2023/05/28 01:08:40;;;;;;;10.18;5.82;;;;;;;12.39;60.80;98502.44;4968084;28;20042;-73
2023/05/28 01:11:10;;;;;;;10.82;4.95;;;;;;;12.57;61.17;98504.03;4948138;28;20034;-75
2023/05/28 01:13:36;;;;;;;12.18;5.60;;;;;;;12.29;61.72;98500.41;4949570;28;20082;-75
2023/05/28 01:16:02;;;;;;;8.57;5.53;;;;;;;12.12;62.11;98496.91;4970981;28;20019;-75
2023/05/28 01:18:27;;;;;;;10.15;5.07;;;;;;;12.19;62.21;98508.34;4968395;28;20377;-75
2023/05/28 01:20:53;;;;;;;8.65;4.57;;;;;;;11.99;62.41;98497.25;4965285;28;20111;-76
2023/05/28 01:23:21;;;;;;;11.55;5.80;;;;;;;11.79;63.12;98497.72;4945431;28;20063;-73
2023/05/28 01:25:51;;;;;;;9.57;5.05;;;;;;;12.21;62.02;98500.81;4947474;28;20022;-73
2023/05/28 01:28:17;;;;;;;9.90;5.30;;;;;;;12.01;62.38;98495.13;4989563;28;20125;-72
2023/05/28 01:30:45;;;;;;;10.43;5.25;;;;;;;11.91;62.67;98500.34;4992023;28;20416;-73
2023/05/28 01:33:11;;;;;;;8.77;4.95;;;;;;;11.70;63.03;98487.59;4949665;28;20109;-73
2023/05/28 01:35:38;;;;;;;8.60;4.90;;;;;;;11.55;62.91;98495.41;4954770;28;20198;-73
2023/05/28 01:38:03;;;;;;;8.65;4.95;;;;;;;11.91;62.55;98494.94;4953921;28;20529;-74
2023/05/28 01:40:30;;;;;;;8.52;5.20;;;;;;;11.99;62.87;98497.25;4977807;28;20101;-74
2023/05/28 01:42:56;;;;;;;9.05;5.45;;;;;;;12.12;62.06;98486.09;4949643;28;20046;-75
2023/05/28 01:45:23;;;;;;;10.13;5.72;;;;;;;12.01;61.83;98489.72;4948293;28;20026;-74
2023/05/28 01:47:49;;;;;;;9.25;5.10;;;;;;;11.48;64.35;98486.63;4978096;28;20484;-73
2023/05/28 01:50:14;;;;;;;9.50;5.47;;;;;;;11.78;63.15;98481.78;4948224;28;20029;-73
2023/05/28 01:52:41;;;;;;;6.80;4.63;;;;;;;11.89;62.93;98486.28;4929499;29;20039;-73
2023/05/28 01:55:08;;;;;;;10.52;5.40;;;;;;;11.50;63.10;98473.72;4937457;28;20063;-74
2023/05/28 01:57:34;;;;;;;8.93;5.10;;;;;;;11.75;63.46;98474.19;4937677;28;20480;-74
2023/05/28 02:00:00;;;;;;;9.00;4.75;;;;;;;11.74;62.78;98472.53;4957786;28;20031;-73
2023/05/28 02:02:26;;;;;;;9.77;5.57;;;;;;;11.88;62.43;98473.84;4969284;28;20604;-73
2023/05/28 02:04:55;;;;;;;7.57;5.05;;;;;;;11.33;63.77;98472.88;4942449;28;20069;-74
2023/05/28 02:07:20;;;;;;;9.10;5.78;;;;;;;11.73;62.99;98476.31;4970562;28;20443;-74
2023/05/28 02:09:48;;;;;;;8.82;5.55;;;;;;;11.64;63.94;98488.53;4964827;28;20044;-76
2023/05/28 02:12:13;;;;;;;10.45;6.15;;;;;;;11.38;63.33;98472.97;4963882;28;20046;-74
2023/05/28 02:14:39;;;;;;;9.85;5.55;;;;;;;11.54;63.61;98472.16;4970213;28;20094;-75
2023/05/28 02:17:04;;;;;;;9.77;5.60;;;;;;;11.56;63.03;98478.13;4986204;28;20446;-75
2023/05/28 02:19:30;;;;;;;9.02;5.03;;;;;;;11.26;64.53;98480.28;4962855;28;20053;-77
2023/05/28 02:21:58;;;;;;;11.50;5.55;;;;;;;11.38;63.68;98467.56;4931430;28;20046;-75
2023/05/28 02:24:24;;;;;;;8.10;4.93;;;;;;;11.67;62.67;98466.44;4991869;28;20109;-74
2023/05/28 02:26:51;;;;;;;8.45;5.45;;;;;;;11.49;63.78;98472.06;4947852;28;20126;-74
2023/05/28 02:29:16;;;;;;;11.52;5.57;;;;;;;11.38;63.94;98467.56;4947588;28;20109;-74
2023/05/28 02:31:42;;;;;;;9.88;5.53;;;;;;;11.24;63.90;98460.84;4961257;28;20447;-74
2023/05/28 02:34:07;;;;;;;11.38;5.30;;;;;;;11.31;64.20;98473.13;4949027;28;20057;-75
2023/05/28 02:36:33;;;;;;;8.50;5.60;;;;;;;11.46;64.08;98470.69;4990189;28;20048;-74
2023/05/28 02:38:58;;;;;;;9.07;4.97;;;;;;;11.20;64.64;98465.91;4954683;28;20053;-74
2023/05/28 02:41:23;;;;;;;12.77;5.88;;;;;;;11.47;64.33;98471.50;4941682;28;20072;-74
2023/05/28 02:43:49;;;;;;;10.70;6.30;;;;;;;11.59;63.52;98466.88;4945010;28;20050;-74
2023/05/28 02:46:14;;;;;;;10.10;5.38;;;;;;;11.45;63.02;98460.16;4945624;28;20041;-74
2023/05/28 02:48:40;;;;;;;9.07;5.40;;;;;;;11.62;63.33;98458.28;4932748;28;20022;-74
2023/05/28 02:51:07;;;;;;;9.55;5.82;;;;;;;11.31;64.08;98456.13;4933194;28;20408;-74
2023/05/28 02:53:54;;;;;;;12.25;6.03;;;;;;;11.65;63.02;98468.56;4951951;28;20476;-75
2023/05/28 02:56:20;;;;;;;13.55;5.82;;;;;;;11.53;63.37;98474.03;4962105;28;20038;-76
2023/05/28 02:58:46;;;;;;;9.70;5.80;;;;;;;11.48;63.20;98467.75;4947695;29;20023;-75
2023/05/28 03:01:13;;;;;;;9.93;5.60;;;;;;;11.48;63.97;98462.38;4979326;28;20042;-75
2023/05/28 03:03:39;;;;;;;9.93;5.78;;;;;;;11.23;64.51;98453.81;4948116;28;20022;-76
2023/05/28 03:06:04;;;;;;;10.13;5.85;;;;;;;11.43;63.98;98456.88;4930219;28;20049;-76
2023/05/28 03:08:36;;;;;;;9.10;5.63;;;;;;;11.57;63.20;98450.13;4965826;28;20034;-77
2023/05/28 03:11:01;;;;;;;13.18;5.85;;;;;;;11.30;63.61;98459.88;4955264;28;20512;-78
2023/05/28 03:13:27;;;;;;;7.70;5.60;;;;;;;11.66;62.33;98462.13;4933752;28;20026;-76
2023/05/28 03:15:53;;;;;;;10.07;5.90;;;;;;;11.79;62.27;98464.53;4968774;28;20031;-76
2023/05/28 03:18:19;;;;;;;8.82;5.60;;;;;;;11.85;61.43;98458.16;4956613;28;20030;-76
2023/05/28 03:20:45;;;;;;;12.30;5.85;;;;;;;11.77;61.50;98461.25;4989480;28;20057;-76
2023/05/28 03:23:10;;;;;;;11.77;5.88;;;;;;;11.72;61.82;98458.47;4949268;28;20022;-77
2023/05/28 03:25:51;;;;;;;8.65;5.57;;;;;;;11.79;61.77;98464.53;4971913;28;20493;-77
2023/05/28 03:28:16;;;;;;;10.55;5.53;;;;;;;11.69;62.34;98456.28;4951178;28;20040;-78
2023/05/28 03:31:01;;;;;;;12.07;5.85;;;;;;;11.30;63.90;98459.88;4994156;28;20029;-76
2023/05/28 03:33:27;;;;;;;12.35;6.05;;;;;;;11.22;63.90;98468.38;5008497;28;20126;-76
2023/05/28 03:35:52;;;;;;;10.80;5.68;;;;;;;11.35;63.23;98463.47;4965393;28;20447;-75
2023/05/28 03:38:17;;;;;;;10.20;5.90;;;;;;;11.40;64.41;98460.06;4945812;28;20038;-75
2023/05/28 03:40:45;;;;;;;9.80;5.78;;;;;;;11.01;65.86;98456.38;4956141;28;20026;-75
2023/05/28 03:43:10;;;;;;;11.82;6.70;;;;;;;11.11;65.46;98460.06;4977321;28;20034;-75
2023/05/28 03:45:36;;;;;;;10.40;5.60;;;;;;;11.34;64.98;98461.03;4944504;28;20463;-75
2023/05/28 03:48:01;;;;;;;9.80;5.88;;;;;;;11.28;65.14;98462.00;4973930;28;20487;-75
2023/05/28 03:50:27;;;;;;;10.68;6.13;;;;;;;11.37;64.66;98455.13;4968999;28;20398;-75
2023/05/28 03:52:52;;;;;;;11.70;5.85;;;;;;;11.29;64.89;98460.94;4979638;28;20411;-75
2023/05/28 03:55:18;;;;;;;11.10;5.80;;;;;;;11.49;64.15;98453.19;4952350;28;20027;-75
2023/05/28 03:57:43;;;;;;;12.23;5.53;;;;;;;11.38;65.11;98456.78;4993806;28;20031;-76
2023/05/28 04:00:09;;;;;;;10.60;6.00;;;;;;;11.23;66.25;98449.25;4956604;28;20061;-75
2023/05/28 04:02:42;;;;;;;9.60;6.50;;;;;;;11.29;65.96;98455.56;4991033;28;20121;-75
2023/05/28 04:05:07;;;;;;;9.65;6.10;;;;;;;11.44;65.53;98456.63;4951996;28;20065;-75
2023/05/28 04:07:33;;;;;;;11.15;6.55;;;;;;;11.26;66.21;98456.03;4946609;28;20130;-76
2023/05/28 04:09:58;;;;;;;11.48;6.00;;;;;;;11.27;66.59;98449.59;4951623;28;20030;-75
2023/05/28 04:12:24;;;;;;;10.60;6.40;;;;;;;11.47;65.92;98453.44;4963629;28;20026;-73
2023/05/28 04:14:49;;;;;;;8.38;6.38;;;;;;;11.22;66.89;98455.72;4958732;28;20494;-72
2023/05/28 04:17:16;;;;;;;10.10;6.00;;;;;;;11.35;66.56;98447.31;4960582;28;20070;-75
2023/05/28 04:19:41;;;;;;;8.88;5.88;;;;;;;11.37;66.61;98455.13;4971018;28;20099;-77
2023/05/28 04:22:07;;;;;;;12.05;6.85;;;;;;;11.39;66.54;98444.97;4956124;28;20037;-75
2023/05/28 04:24:33;;;;;;;9.77;6.40;;;;;;;11.43;66.72;98451.50;4967488;28;20490;-76
2023/05/28 04:26:59;;;;;;;11.77;6.70;;;;;;;11.45;66.65;98449.38;4965587;28;20073;-76
2023/05/28 04:29:29;;;;;;;12.25;7.03;;;;;;;11.56;66.58;98448.47;4995099;28;20563;-77
2023/05/28 04:31:55;;;;;;;9.02;6.60;;;;;;;11.65;66.49;98455.91;4995961;28;20048;-76
2023/05/28 04:34:24;;;;;;;10.70;6.05;;;;;;;11.84;65.47;98444.91;4958759;28;20026;-76
2023/05/28 04:36:51;;;;;;;9.95;6.35;;;;;;;11.89;66.44;98448.50;4981447;28;20034;-76
2023/05/28 04:39:17;;;;;;;10.13;5.95;;;;;;;11.97;65.66;98450.78;4978507;28;20030;-75
2023/05/28 04:41:43;;;;;;;7.90;5.65;;;;;;;12.14;65.35;98451.56;4962330;28;20069;-76
2023/05/28 04:44:10;;;;;;;10.25;6.00;;;;;;;11.98;65.96;98449.72;4977698;28;20476;-76
2023/05/28 04:46:36;;;;;;;10.45;5.40;;;;;;;11.94;64.92;98451.28;4933406;28;20034;-75
2023/05/28 04:49:02;;;;;;;12.10;6.60;;;;;;;11.95;65.58;98447.50;4968546;28;20519;-76
2023/05/28 04:51:28;;;;;;;9.48;6.30;;;;;;;12.09;65.93;98448.00;4967382;28;20129;-76
2023/05/28 04:53:53;;;;;;;10.57;5.90;;;;;;;12.41;65.53;98447.13;4967049;28;20117;-76
2023/05/28 04:56:19;;;;;;;11.23;6.25;;;;;;;12.23;65.66;98444.69;4948577;28;20397;-76
2023/05/28 04:58:46;;;;;;;12.70;6.18;;;;;;;12.31;66.22;98448.84;4968398;28;20057;-75
2023/05/28 05:01:14;;;;;;;8.75;5.70;;;;;;;12.41;64.95;98455.22;4958148;28;20382;-75
2023/05/28 05:03:41;;;;;;;8.35;6.18;;;;;;;11.67;68.26;98451.13;4951417;28;20030;-74
2023/05/28 05:06:07;;;;;;;10.07;6.20;;;;;;;12.18;65.16;98444.59;4964029;28;20045;-75
2023/05/28 05:08:32;;;;;;;11.73;5.88;;;;;;;12.22;64.34;98456.56;4967706;28;20163;-75
2023/05/28 05:11:00;;;;;;;11.23;6.22;;;;;;;12.13;63.35;98458.06;4970553;28;20039;-75
2023/05/28 05:13:25;;;;;;;11.45;6.18;;;;;;;12.47;62.89;98461.50;4983173;28;20034;-75
2023/05/28 05:15:51;;;;;;;13.20;6.63;;;;;;;12.42;63.81;98464.94;4964024;28;20026;-75
2023/05/28 05:18:17;;;;;;;10.82;6.30;;;;;;;12.72;63.15;98469.13;4967833;28;20053;-76
2023/05/28 05:20:43;;;;;;;12.45;6.03;;;;;;;12.43;65.35;98461.19;4969491;28;20031;-75
2023/05/28 05:23:08;;;;;;;14.40;6.05;;;;;;;12.63;64.62;98465.19;4978034;28;20113;-76
2023/05/28 05:25:34;;;;;;;9.52;6.20;;;;;;;13.10;63.60;98466.34;4945467;28;20050;-75
2023/05/28 05:28:00;;;;;;;8.93;5.60;;;;;;;13.10;63.41;98466.34;4967841;28;20022;-75
2023/05/28 05:30:28;;;;;;;11.50;5.85;;;;;;;13.00;64.25;98466.19;4969833;28;20027;-75
2023/05/28 05:32:53;;;;;;;12.68;5.82;;;;;;;13.43;62.42;98470.75;4986661;28;20026;-75
2023/05/28 05:35:19;;;;;;;11.80;6.32;;;;;;;13.41;63.99;98479.13;4960823;28;20031;-75
2023/05/28 05:38:07;;;;;;;14.07;6.30;;;;;;;13.00;63.33;98477.00;4943709;28;20045;-75
2023/05/28 05:41:00;;;;;;;8.25;5.53;;;;;;;13.48;60.95;98463.50;4968577;28;20519;-76
2023/05/28 05:43:36;;;;;;;12.80;6.20;;;;;;;13.53;61.03;98471.69;4973089;28;20047;-76
2023/05/28 05:46:02;;;;;;;14.32;6.65;;;;;;;13.73;60.22;98471.84;4936211;28;20046;-76
2023/05/28 05:48:27;;;;;;;9.88;6.18;;;;;;;13.68;61.73;98474.50;4947159;28;20121;-76
2023/05/28 05:50:58;;;;;;;12.88;6.20;;;;;;;13.77;61.39;98472.97;4949089;28;20035;-76
2023/05/28 05:53:24;;;;;;;9.48;5.47;;;;;;;13.88;60.38;98471.97;4953968;28;20163;-76
2023/05/28 05:55:50;;;;;;;11.38;5.75;;;;;;;13.93;60.60;98478.50;4952138;28;20027;-76
2023/05/28 05:58:17;;;;;;;10.82;6.00;;;;;;;14.04;60.18;98472.09;4960011;28;20125;-76
2023/05/28 06:00:42;;;;;;;11.40;6.10;;;;;;;14.09;59.32;98475.66;4944071;28;20114;-75
2023/05/28 06:03:09;;;;;;;10.05;5.80;;;;;;;14.43;58.18;98465.34;4975476;28;20026;-75
2023/05/28 06:05:53;;;;;;;11.73;5.60;;;;;;;14.28;59.64;98467.94;4992985;28;20494;-74
2023/05/28 06:08:33;;;;;;;10.02;6.05;;;;;;;14.69;58.01;98469.81;4975880;28;20037;-74
2023/05/28 06:11:13;;;;;;;10.68;6.00;;;;;;;14.93;58.39;98467.47;4975750;28;20080;-74
2023/05/28 06:13:41;;;;;;;10.75;5.82;;;;;;;14.92;59.51;98463.94;4948093;28;20039;-77
2023/05/28 06:16:06;;;;;;;11.88;6.47;;;;;;;14.98;57.96;98468.28;4975791;28;20101;-76
2023/05/28 06:18:32;;;;;;;10.90;5.68;;;;;;;15.04;58.71;98464.53;4948501;28;20118;-77
2023/05/28 06:20:59;;;;;;;14.30;5.88;;;;;;;15.18;59.43;98473.81;4953415;28;20114;-76
2023/05/28 06:23:25;;;;;;;12.20;5.95;;;;;;;15.36;59.83;98474.38;4940117;28;20063;-75
2023/05/28 06:25:51;;;;;;;13.75;6.18;;;;;;;15.27;59.77;98473.28;4958574;28;20104;-76
2023/05/28 06:28:16;;;;;;;10.82;5.75;;;;;;;15.24;59.64;98471.91;4931490;28;20034;-76
2023/05/28 06:30:42;;;;;;;11.55;5.93;;;;;;;15.16;60.00;98465.13;4969926;28;20029;-76
2023/05/28 06:33:09;;;;;;;10.07;6.40;;;;;;;15.54;59.50;98471.22;4965948;28;20106;-74
2023/05/28 06:35:35;;;;;;;10.23;5.82;;;;;;;15.52;58.63;98476.09;4969162;28;20030;-73
2023/05/28 06:38:01;;;;;;;10.82;6.07;;;;;;;15.56;58.92;98474.47;4975303;28;20061;-76
2023/05/28 06:40:26;;;;;;;11.45;5.97;;;;;;;15.72;60.29;98476.09;4946398;28;20400;-76
2023/05/28 06:42:52;;;;;;;9.45;5.53;;;;;;;15.76;59.24;98478.00;4956939;28;20132;-76
2023/05/28 06:45:23;;;;;;;10.45;5.82;;;;;;;15.72;59.81;98476.94;4965011;28;20465;-75
2023/05/28 06:47:49;;;;;;;12.30;5.82;;;;;;;15.77;59.55;98474.22;4975379;28;20101;-76
2023/05/28 06:50:16;;;;;;;11.57;5.43;;;;;;;16.23;58.21;98480.44;4953703;28;20045;-76
2023/05/28 06:52:42;;;;;;;8.70;5.60;;;;;;;16.55;56.29;98474.69;4952446;28;20034;-76
2023/05/28 06:55:08;;;;;;;11.45;5.72;;;;;;;16.48;57.39;98472.25;4956311;28;20036;-76
2023/05/28 06:57:36;;;;;;;11.88;5.45;;;;;;;16.58;57.47;98472.25;4971795;28;20039;-76
2023/05/28 07:00:25;;;;;;;13.55;6.00;;;;;;;16.72;56.06;98471.66;4949940;28;20041;-76
2023/05/28 07:03:05;;;;;;;12.20;5.97;;;;;;;17.01;53.32;98469.94;4940696;28;20125;-76
2023/05/28 07:05:49;;;;;;;11.73;5.22;;;;;;;17.31;51.29;98469.78;4971338;28;20069;-76
2023/05/28 07:08:15;;;;;;;10.52;5.10;;;;;;;17.36;51.86;98467.03;4958856;28;20469;-76
2023/05/28 07:10:40;;;;;;;11.07;5.68;;;;;;;17.53;50.87;98472.09;4959048;28;20033;-76
2023/05/28 07:13:07;;;;;;;12.63;5.78;;;;;;;17.62;51.62;98470.44;4974621;28;20034;-76
2023/05/28 07:15:32;;;;;;;11.15;5.82;;;;;;;17.23;52.68;98473.88;4962622;28;20023;-76
2023/05/28 07:18:00;;;;;;;10.73;5.15;;;;;;;17.47;51.67;98473.22;4969920;28;20038;-76
2023/05/28 07:20:26;;;;;;;14.40;5.78;;;;;;;17.56;51.14;98475.09;4957698;28;20027;-76
2023/05/28 07:22:57;;;;;;;11.27;5.53;;;;;;;17.56;49.27;98474.25;4938993;28;20484;-76
2023/05/28 07:25:23;;;;;;;11.63;5.05;;;;;;;18.03;48.69;98471.75;4962826;28;20086;-76
2023/05/28 07:27:49;;;;;;;11.40;5.32;;;;;;;18.09;50.55;98480.66;4972383;28;20499;-76
2023/05/28 07:30:22;;;;;;;11.57;5.85;;;;;;;17.97;50.34;98478.31;4959431;28;20046;-76
2023/05/28 07:32:50;;;;;;;11.65;5.78;;;;;;;17.88;50.29;98475.41;4968451;28;20034;-78
2023/05/28 07:35:16;;;;;;;12.63;5.63;;;;;;;18.35;48.60;98479.34;4947134;28;20023;-77
2023/05/28 07:37:41;;;;;;;10.45;5.00;;;;;;;18.32;49.55;98479.94;4976796;28;20039;-76
2023/05/28 07:40:08;;;;;;;10.95;5.43;;;;;;;18.36;48.13;98476.34;4971932;28;20039;-76
2023/05/28 07:42:34;;;;;;;14.68;5.43;;;;;;;18.70;48.32;98470.00;4959149;28;20031;-76
2023/05/28 07:45:02;;;;;;;9.38;5.15;;;;;;;18.72;48.06;98476.78;4972160;28;20121;-76
2023/05/28 07:47:28;;;;;;;9.60;5.03;;;;;;;19.03;47.30;98469.88;4968862;28;20109;-76
2023/05/28 07:49:54;;;;;;;12.43;5.32;;;;;;;18.87;47.91;98473.91;4983053;28;20296;-76
2023/05/28 07:52:29;;;;;;;9.85;5.07;;;;;;;18.58;47.34;98473.94;4978263;28;20057;-76
2023/05/28 07:54:58;;;;;;;9.27;4.97;;;;;;;18.69;47.61;98473.84;4949927;28;20423;-76
2023/05/28 07:57:24;;;;;;;14.05;5.47;;;;;;;18.87;47.47;98476.63;4958986;28;20069;-76
2023/05/28 07:59:50;;;;;;;11.60;5.40;;;;;;;19.09;46.98;98468.69;4958776;28;20118;-76
2023/05/28 08:02:17;;;;;;;11.13;5.32;;;;;;;18.49;47.66;98472.13;4942849;28;20046;-76
2023/05/28 08:04:43;;;;;;;14.00;5.35;;;;;;;18.93;45.05;98464.53;4976060;28;20038;-72
2023/05/28 08:07:13;;;;;;;10.73;5.65;;;;;;;19.16;44.65;98455.50;4967437;28;20019;-78
2023/05/28 08:09:41;;;;;;;11.30;5.28;;;;;;;19.69;44.69;98455.34;4992770;28;20042;-72
2023/05/28 08:12:06;;;;;;;10.95;4.90;;;;;;;19.50;42.60;98458.09;4978046;28;20030;-73
2023/05/28 08:14:33;;;;;;;8.40;4.75;;;;;;;19.39;43.03;98458.53;4948929;28;20034;-73
2023/05/28 08:17:05;;;;;;;8.68;4.95;;;;;;;19.82;41.63;98449.94;4950577;28;20055;-75
2023/05/28 08:19:39;;;;;;;8.73;4.50;;;;;;;19.51;40.80;98442.50;4950587;28;20551;-77
2023/05/28 08:22:13;;;;;;;9.32;4.80;;;;;;;19.78;42.23;98459.84;4992343;28;20030;-76
2023/05/28 08:24:39;;;;;;;12.25;4.95;;;;;;;20.21;39.89;98451.47;4987132;28;20484;-76
2023/05/28 08:27:06;;;;;;;10.80;4.65;;;;;;;20.28;39.57;98441.00;4958119;28;20023;-76
2023/05/28 08:29:31;;;;;;;13.32;5.10;;;;;;;20.06;41.17;98443.53;4961545;28;20445;-76
2023/05/28 08:32:02;;;;;;;9.77;4.45;;;;;;;20.44;40.69;98445.84;4961765;28;20086;-76
2023/05/28 08:34:38;;;;;;;9.52;5.10;;;;;;;20.52;41.70;98441.63;4953842;28;20042;-76
2023/05/28 08:37:04;;;;;;;13.88;4.80;;;;;;;20.18;43.06;98441.94;4944813;28;20039;-77
2023/05/28 08:39:36;;;;;;;10.38;5.22;;;;;;;20.43;41.59;98446.97;4954548;28;20040;-76
2023/05/28 08:42:03;;;;;;;9.07;4.55;;;;;;;20.32;39.44;98439.25;4964462;28;20125;-76
2023/05/28 08:44:29;;;;;;;7.47;4.22;;;;;;;19.91;40.29;98441.84;4961453;28;20068;-76
2023/05/28 08:46:55;;;;;;;8.20;4.82;;;;;;;20.12;40.19;98443.13;4964523;28;20054;-76
2023/05/28 08:49:42;;;;;;;9.68;4.80;;;;;;;20.63;39.28;98426.66;4950054;28;20159;-76
2023/05/28 08:52:11;;;;;;;8.35;4.22;;;;;;;20.88;37.25;98428.03;4955154;28;20034;-76
2023/05/28 08:54:37;;;;;;;10.05;4.50;;;;;;;20.57;38.48;98431.41;4946747;28;20033;-76
2023/05/28 08:57:03;;;;;;;10.93;4.60;;;;;;;21.08;37.65;98430.38;4950739;28;20026;-76
2023/05/28 08:59:31;;;;;;;7.63;4.07;;;;;;;21.37;37.63;98436.31;4946211;28;20023;-77
2023/05/28 09:01:56;;;;;;;9.13;4.28;;;;;;;20.83;36.85;98431.69;4941827;28;20062;-76
2023/05/28 09:04:22;;;;;;;7.70;4.15;;;;;;;20.92;38.92;98429.03;4954388;28;20030;-76
2023/05/28 09:06:49;;;;;;;11.18;4.82;;;;;;;20.98;38.46;98427.84;4941803;28;20039;-76
2023/05/28 09:09:35;;;;;;;9.05;4.88;;;;;;;21.17;37.87;98426.59;4986639;28;20489;-77
2023/05/28 09:12:05;;;;;;;12.25;4.47;;;;;;;20.89;35.60;98424.16;4969597;28;20066;-76
2023/05/28 09:14:37;;;;;;;6.70;3.88;;;;;;;21.05;36.83;98428.28;4947900;28;20117;-76
2023/05/28 09:17:03;;;;;;;10.90;4.45;;;;;;;21.20;35.24;98427.94;4929204;29;20038;-76
2023/05/28 09:19:28;;;;;;;8.10;4.43;;;;;;;21.08;37.19;98413.94;4977134;28;20034;-76
2023/05/28 09:22:01;;;;;;;10.02;5.10;;;;;;;21.32;37.57;98409.03;4948287;28;20110;-77
2023/05/28 09:24:54;;;;;;;8.10;4.63;;;;;;;21.14;36.28;98412.72;4980221;28;20057;-76
2023/05/28 09:27:36;;;;;;;9.68;4.50;;;;;;;21.48;38.06;98413.03;4964269;28;20042;-76
2023/05/28 09:30:08;;;;;;;8.80;4.60;;;;;;;21.24;36.28;98409.75;4964072;28;20046;-77
2023/05/28 09:32:34;;;;;;;11.85;4.47;;;;;;;21.35;36.95;98405.69;4969100;28;20038;-76
2023/05/28 09:35:00;;;;;;;12.70;5.13;;;;;;;21.20;35.87;98400.53;4946898;28;20030;-76
2023/05/28 09:37:27;;;;;;;10.43;4.18;;;;;;;21.04;37.04;98404.69;4957428;28;20031;-75
2023/05/28 09:40:09;;;;;;;11.52;4.85;;;;;;;21.55;36.34;98402.44;4973750;28;20023;-75
2023/05/28 09:42:39;;;;;;;6.95;4.03;;;;;;;21.10;37.44;98398.00;4967708;28;20067;-75
2023/05/28 09:45:05;;;;;;;8.10;4.63;;;;;;;21.02;35.96;98401.47;4960269;28;20045;-75
2023/05/28 09:47:30;;;;;;;9.65;4.40;;;;;;;21.67;36.34;98397.22;4950159;28;20078;-75
2023/05/28 09:49:56;;;;;;;7.20;4.50;;;;;;;21.91;35.14;98392.25;4987230;28;20463;-76
2023/05/28 09:52:22;;;;;;;11.52;5.18;;;;;;;21.70;36.38;98402.09;4966865;28;20050;-75
2023/05/28 09:54:52;;;;;;;12.20;4.28;;;;;;;21.64;35.84;98397.03;4980467;28;20037;-75
2023/05/28 09:57:23;;;;;;;8.20;4.50;;;;;;;21.92;35.53;98398.56;4967116;28;20030;-75
2023/05/28 09:59:53;;;;;;;9.60;4.10;;;;;;;21.87;36.28;98401.41;4987695;28;20121;-75
2023/05/28 10:02:50;;;;;;;7.18;3.97;;;;;;;22.16;34.01;98395.47;4968758;28;20121;-75
2023/05/28 10:05:16;;;;;;;7.72;4.22;;;;;;;22.68;34.40;98391.88;4966533;28;20496;-75
2023/05/28 10:07:44;;;;;;;8.10;4.45;;;;;;;22.75;33.94;98389.47;4972708;28;20062;-75
2023/05/28 10:10:11;;;;;;;6.97;4.00;;;;;;;22.68;34.46;98394.63;4956766;28;20038;-75
2023/05/28 10:12:37;;;;;;;7.97;4.47;;;;;;;22.30;34.03;98387.97;4985561;28;20094;-75
2023/05/28 10:15:03;;;;;;;9.50;4.43;;;;;;;22.68;33.22;98389.13;4982329;28;20038;-75
2023/05/28 10:17:29;;;;;;;10.50;4.72;;;;;;;22.68;32.63;98383.63;4963051;28;20106;-76
2023/05/28 10:19:55;;;;;;;9.23;4.45;;;;;;;22.79;32.64;98379.47;4985386;28;20070;-75
2023/05/28 10:22:21;;;;;;;8.27;3.90;;;;;;;22.50;33.07;98381.91;4974158;28;20026;-75
2023/05/28 10:24:46;;;;;;;9.60;3.95;;;;;;;22.97;32.91;98385.78;4966758;28;20103;-75
2023/05/28 10:27:13;;;;;;;8.80;3.80;;;;;;;22.89;33.39;98395.66;4963210;28;20044;-76
2023/05/28 10:29:44;;;;;;;8.95;4.55;;;;;;;23.12;32.79;98382.59;4950117;28;20496;-75
2023/05/28 10:32:09;;;;;;;8.10;4.18;;;;;;;22.89;30.59;98394.84;4973133;28;20035;-75
2023/05/28 10:34:36;;;;;;;11.93;4.38;;;;;;;23.01;31.08;98386.78;4965305;28;20051;-75
2023/05/28 10:37:09;;;;;;;8.48;4.18;;;;;;;23.20;33.00;98374.34;4969239;28;20039;-75
2023/05/28 10:39:42;;;;;;;7.32;4.20;;;;;;;22.13;33.25;98382.38;4967204;28;20727;-76
2023/05/28 10:42:10;;;;;;;7.18;4.05;;;;;;;22.16;32.29;98384.50;4970259;28;20054;-76
2023/05/28 10:45:03;;;;;;;9.20;4.28;;;;;;;22.66;31.48;98377.66;4968238;28;20033;-75
2023/05/28 10:47:32;;;;;;;8.63;4.80;;;;;;;23.08;31.28;98376.13;4972470;28;20038;-76
2023/05/28 10:50:18;;;;;;;7.53;4.10;;;;;;;23.82;30.43;98371.31;4976634;28;20039;-75
2023/05/28 10:53:06;;;;;;;7.95;4.43;;;;;;;23.56;33.96;98370.50;4984858;28;20579;-75
2023/05/28 10:55:51;;;;;;;11.73;4.35;;;;;;;23.52;33.21;98369.56;4966975;28;20560;-75
2023/05/28 10:58:23;;;;;;;9.38;4.55;;;;;;;23.63;32.53;98365.34;4952526;28;20415;-75
2023/05/28 11:00:48;;;;;;;10.10;4.20;;;;;;;24.07;32.14;98364.97;4973042;28;20030;-75
2023/05/28 11:03:14;;;;;;;7.75;4.18;;;;;;;24.22;32.15;98361.69;4968350;28;20369;-75
2023/05/28 11:05:40;;;;;;;7.18;4.32;;;;;;;23.53;31.28;98360.16;4972979;28;20041;-75
2023/05/28 11:08:06;;;;;;;10.10;5.20;;;;;;;23.43;32.32;98358.56;4968541;28;20064;-75
2023/05/28 11:10:32;;;;;;;9.27;4.72;;;;;;;23.14;32.22;98363.84;4972949;28;20038;-75
2023/05/28 11:12:57;;;;;;;7.65;4.57;;;;;;;24.15;32.40;98349.56;4975901;28;20034;-75
2023/05/28 11:15:26;;;;;;;8.23;4.75;;;;;;;24.43;32.44;98351.56;4964583;28;20042;-75
2023/05/28 11:17:52;;;;;;;7.90;4.40;;;;;;;24.79;32.00;98347.50;4968355;28;20062;-75
2023/05/28 11:20:22;;;;;;;8.63;4.90;;;;;;;24.20;33.10;98354.91;4955638;28;20516;-75
2023/05/28 11:22:49;;;;;;;7.13;4.40;;;;;;;23.52;34.14;98355.81;4973935;28;20045;-75
2023/05/28 11:25:14;;;;;;;9.02;4.57;;;;;;;24.83;33.49;98343.78;4971518;28;20027;-75
2023/05/28 11:27:40;;;;;;;10.13;4.90;;;;;;;23.78;34.13;98353.84;4985010;28;20377;-75
2023/05/28 11:30:11;;;;;;;8.88;4.88;;;;;;;22.49;34.98;98348.19;4967061;28;20069;-75
2023/05/28 11:32:36;;;;;;;9.52;4.65;;;;;;;23.96;33.55;98347.16;4979250;28;20054;-75